Time;durP1;ratioP1;P1;durP2;ratioP2;P2;SDS_P1;SDS_P2;PMS_P1;PMS_P2;Temp;Humidity;BMP_temperature;BMP_pressure;BME280_temperature;BME280_humidity;BME280_pressure;Samples;Min_cycle;Max_cycle;Signal;HPM_P1;HPM_P2
2021/09/24 00:01:40;;;;;;;6.97;1.23;;;15.30;99.90;;;;;;4989543;28;20038;-70
2021/09/24 00:04:06;;;;;;;1.85;0.57;;;15.30;99.90;;;;;;4989414;28;20421;-70
2021/09/24 00:06:32;;;;;;;5.38;1.00;;;15.30;99.90;;;;;;4989187;28;20086;-71
2021/09/24 00:08:57;;;;;;;6.10;1.10;;;15.30;99.90;;;;;;4987831;28;20058;-71
2021/09/24 00:11:23;;;;;;;3.38;1.17;;;15.30;99.90;;;;;;4988323;28;20042;-70
2021/09/24 00:13:49;;;;;;;4.65;0.82;;;15.30;99.90;;;;;;4988964;28;20069;-70
2021/09/24 00:16:14;;;;;;;6.70;1.33;;;15.40;99.90;;;;;;4988074;28;20109;-70
2021/09/24 00:18:40;;;;;;;5.78;1.05;;;15.40;99.90;;;;;;4988672;28;20038;-70
2021/09/24 00:21:05;;;;;;;3.33;0.63;;;15.30;99.90;;;;;;4989392;28;20139;-71
2021/09/24 00:23:31;;;;;;;4.55;1.63;;;15.40;99.90;;;;;;4989461;28;20042;-70
2021/09/24 00:25:57;;;;;;;3.00;1.00;;;15.40;99.90;;;;;;4989037;28;20104;-70
2021/09/24 00:28:22;;;;;;;4.80;1.08;;;15.40;99.90;;;;;;4989191;28;20550;-70
2021/09/24 00:30:48;;;;;;;4.60;1.50;;;15.40;99.90;;;;;;4988797;28;20038;-71
2021/09/24 00:33:14;;;;;;;4.45;0.80;;;15.40;99.90;;;;;;4989318;28;20109;-70
2021/09/24 00:35:39;;;;;;;8.10;1.10;;;15.40;99.90;;;;;;4987339;28;20031;-71
2021/09/24 00:38:05;;;;;;;3.88;1.00;;;15.40;99.90;;;;;;4989012;28;20031;-71
2021/09/24 00:40:34;;;;;;;7.18;0.90;;;15.40;99.90;;;;;;4987638;28;20038;-70
2021/09/24 00:43:00;;;;;;;4.22;1.13;;;15.40;99.90;;;;;;4988056;28;20022;-70
2021/09/24 00:45:26;;;;;;;11.63;1.70;;;15.40;99.90;;;;;;4989049;28;20433;-70
2021/09/24 00:47:52;;;;;;;8.88;1.27;;;15.40;99.90;;;;;;4988849;28;20030;-70
2021/09/24 00:50:18;;;;;;;6.03;1.20;;;15.40;99.90;;;;;;4987247;28;20038;-70
2021/09/24 00:52:43;;;;;;;5.72;1.15;;;15.40;99.90;;;;;;4987416;28;20049;-70
2021/09/24 00:55:09;;;;;;;3.15;0.95;;;15.40;99.90;;;;;;4989119;28;20073;-70
2021/09/24 00:57:35;;;;;;;4.47;1.00;;;15.40;99.90;;;;;;4987944;28;20042;-69
2021/09/24 01:00:01;;;;;;;7.53;1.60;;;15.40;99.90;;;;;;4988290;28;20460;-70
2021/09/24 01:02:26;;;;;;;5.50;1.20;;;15.40;99.90;;;;;;4988218;28;20035;-70
2021/09/24 01:04:52;;;;;;;5.78;0.77;;;15.40;99.90;;;;;;4992118;28;20129;-70
2021/09/24 01:07:18;;;;;;;6.20;1.10;;;15.40;99.90;;;;;;4993020;28;20030;-70
2021/09/24 01:09:44;;;;;;;3.38;1.00;;;15.40;99.90;;;;;;4992080;28;20038;-70
2021/09/24 01:12:10;;;;;;;7.45;1.25;;;15.40;99.90;;;;;;4992925;28;20089;-71
2021/09/24 01:14:36;;;;;;;4.15;1.00;;;15.40;99.90;;;;;;4992733;28;20034;-70
2021/09/24 01:17:02;;;;;;;5.13;1.13;;;15.40;99.90;;;;;;4990823;28;20182;-70
2021/09/24 01:19:28;;;;;;;4.53;1.08;;;15.40;99.90;;;;;;4992231;28;20058;-70
2021/09/24 01:21:54;;;;;;;2.83;1.00;;;15.40;99.90;;;;;;4990757;28;20096;-70
2021/09/24 01:24:19;;;;;;;4.07;0.98;;;15.40;99.90;;;;;;4991353;28;20034;-70
2021/09/24 01:26:55;;;;;;;6.47;1.00;;;15.40;99.90;;;;;;4991928;28;20069;-71
2021/09/24 01:29:25;;;;;;;6.65;1.10;;;15.40;99.90;;;;;;4992126;28;20058;-70
2021/09/24 01:31:51;;;;;;;4.70;1.20;;;15.40;99.90;;;;;;4991857;28;20034;-70
2021/09/24 01:34:17;;;;;;;3.67;1.00;;;15.40;99.90;;;;;;4992383;28;20304;-70
2021/09/24 01:36:42;;;;;;;6.88;1.33;;;15.40;99.90;;;;;;4992222;28;20038;-70
2021/09/24 01:39:10;;;;;;;1.73;0.73;;;15.40;99.90;;;;;;4991561;28;20034;-70
2021/09/24 01:41:41;;;;;;;5.68;1.05;;;15.40;99.90;;;;;;4992372;28;20026;-70
2021/09/24 01:44:06;;;;;;;5.75;0.98;;;15.40;99.90;;;;;;4986185;28;20038;-70
2021/09/24 01:46:37;;;;;;;6.35;0.90;;;15.40;99.90;;;;;;4991897;28;20117;-70
2021/09/24 01:49:03;;;;;;;6.25;1.63;;;15.40;99.90;;;;;;4987843;28;20117;-70
2021/09/24 01:51:29;;;;;;;9.82;1.30;;;15.50;99.90;;;;;;4992033;28;20092;-70
2021/09/24 01:53:54;;;;;;;11.18;1.48;;;15.50;99.90;;;;;;4990320;28;20034;-70
2021/09/24 01:56:23;;;;;;;2.10;0.95;;;15.50;99.90;;;;;;4991842;28;20048;-70
2021/09/24 01:58:48;;;;;;;6.82;1.10;;;15.50;99.90;;;;;;4991738;28;20397;-70
2021/09/24 02:01:14;;;;;;;6.05;1.45;;;15.50;99.90;;;;;;4990011;28;20121;-70
2021/09/24 02:03:39;;;;;;;4.03;0.77;;;15.50;99.90;;;;;;4991924;28;20133;-71
2021/09/24 02:06:05;;;;;;;7.47;1.30;;;15.60;99.90;;;;;;4991343;28;20101;-70
2021/09/24 02:08:31;;;;;;;3.42;0.80;;;15.60;99.90;;;;;;4991582;28;20035;-70
2021/09/24 02:10:56;;;;;;;3.38;0.93;;;15.60;99.90;;;;;;4991311;28;20146;-70
2021/09/24 02:13:22;;;;;;;6.82;1.17;;;15.60;99.90;;;;;;4991319;28;20034;-71
2021/09/24 02:15:47;;;;;;;5.88;1.08;;;15.60;99.90;;;;;;4988982;28;20494;-70
2021/09/24 02:18:13;;;;;;;6.15;1.10;;;15.60;99.90;;;;;;4991130;28;20034;-71
2021/09/24 02:20:38;;;;;;;8.35;1.52;;;15.60;99.90;;;;;;4991601;28;20022;-70
2021/09/24 02:23:04;;;;;;;4.30;1.25;;;15.60;99.90;;;;;;4991222;28;20026;-70
2021/09/24 02:25:30;;;;;;;6.50;1.33;;;15.60;99.90;;;;;;4989637;28;20066;-70
2021/09/24 02:27:56;;;;;;;2.90;1.10;;;15.60;99.90;;;;;;4988555;28;20031;-72
2021/09/24 02:30:21;;;;;;;5.25;1.30;;;15.60;99.90;;;;;;4990732;28;20041;-70
2021/09/24 02:32:47;;;;;;;6.65;1.08;;;15.60;99.90;;;;;;4991525;28;20045;-70
2021/09/24 02:35:12;;;;;;;4.85;1.73;;;15.60;99.90;;;;;;4990809;28;20026;-71
2021/09/24 02:37:38;;;;;;;4.85;1.20;;;15.60;99.90;;;;;;4991266;28;20030;-70
2021/09/24 02:40:04;;;;;;;5.72;1.40;;;15.60;99.90;;;;;;4990401;28;20165;-70
2021/09/24 02:42:30;;;;;;;8.73;1.50;;;15.60;99.90;;;;;;4991251;28;20038;-71
2021/09/24 02:44:55;;;;;;;4.18;1.52;;;15.60;99.90;;;;;;4989555;28;20116;-70
2021/09/24 02:47:21;;;;;;;9.50;1.63;;;15.60;99.90;;;;;;4988291;28;20398;-70
2021/09/24 02:49:48;;;;;;;4.20;1.45;;;15.60;99.90;;;;;;4990896;28;20065;-70
2021/09/24 02:52:14;;;;;;;3.88;1.50;;;15.60;99.90;;;;;;4990712;28;20030;-70
2021/09/24 02:54:42;;;;;;;3.60;1.60;;;15.60;99.90;;;;;;4991355;28;20066;-70
2021/09/24 02:57:08;;;;;;;4.00;1.67;;;15.50;99.90;;;;;;4990531;28;20383;-70
2021/09/24 02:59:33;;;;;;;7.30;1.90;;;15.50;99.90;;;;;;4990679;28;20045;-70
2021/09/24 03:01:59;;;;;;;9.93;2.22;;;15.40;99.90;;;;;;4989738;28;20034;-70
2021/09/24 03:04:26;;;;;;;5.20;2.05;;;15.30;99.90;;;;;;4989062;28;20505;-71
2021/09/24 03:06:51;;;;;;;13.02;2.55;;;15.30;99.90;;;;;;4990995;28;20031;-70
2021/09/24 03:09:17;;;;;;;11.40;3.85;;;15.20;99.90;;;;;;4989097;28;20035;-69
2021/09/24 03:11:43;;;;;;;15.15;3.75;;;15.20;99.90;;;;;;4990804;28;20066;-70
2021/09/24 03:14:11;;;;;;;11.00;4.05;;;15.10;99.90;;;;;;4988990;28;20066;-69
2021/09/24 03:16:37;;;;;;;8.68;4.43;;;15.10;99.90;;;;;;4990665;28;20065;-70
2021/09/24 03:19:05;;;;;;;10.60;5.15;;;15.10;99.90;;;;;;4990256;28;20534;-71
2021/09/24 03:21:30;;;;;;;12.38;4.47;;;15.00;99.90;;;;;;4990219;28;20121;-70
2021/09/24 03:23:56;;;;;;;10.73;5.07;;;15.00;99.90;;;;;;4990280;28;20114;-70
2021/09/24 03:26:22;;;;;;;11.40;5.82;;;14.90;99.90;;;;;;4989406;28;20025;-71
2021/09/24 03:28:47;;;;;;;13.98;5.28;;;14.90;99.90;;;;;;4988383;28;20058;-70
2021/09/24 03:31:15;;;;;;;11.10;5.40;;;14.90;99.90;;;;;;4988640;28;20420;-70
2021/09/24 03:33:41;;;;;;;12.60;5.30;;;14.90;99.90;;;;;;4990160;28;20038;-70
2021/09/24 03:36:07;;;;;;;19.80;6.35;;;14.80;99.90;;;;;;4990243;28;20084;-70
2021/09/24 03:38:32;;;;;;;11.60;5.85;;;14.80;99.90;;;;;;4988053;28;20038;-70
2021/09/24 03:40:58;;;;;;;14.23;6.53;;;14.80;99.90;;;;;;4990172;28;20031;-70
2021/09/24 03:43:24;;;;;;;19.23;7.95;;;14.80;99.90;;;;;;4989376;28;20034;-70
2021/09/24 03:45:49;;;;;;;18.25;7.50;;;14.80;99.90;;;;;;4990039;28;20062;-70
2021/09/24 03:48:15;;;;;;;18.98;7.78;;;14.90;99.90;;;;;;4989205;28;20113;-70
2021/09/24 03:50:41;;;;;;;29.55;8.85;;;14.90;99.90;;;;;;4990089;28;20038;-70
2021/09/24 03:53:07;;;;;;;29.08;10.70;;;14.90;99.90;;;;;;4989691;28;20034;-70
2021/09/24 03:55:32;;;;;;;28.17;11.20;;;15.10;99.90;;;;;;4987921;28;20038;-71
2021/09/24 03:57:58;;;;;;;29.23;10.80;;;15.10;99.90;;;;;;4989480;28;20034;-70
2021/09/24 04:00:23;;;;;;;28.58;9.95;;;15.10;99.90;;;;;;4987792;28;20117;-70
2021/09/24 04:02:49;;;;;;;23.77;10.27;;;15.10;99.90;;;;;;4989703;28;20034;-71
2021/09/24 04:05:17;;;;;;;42.90;13.05;;;15.10;99.90;;;;;;4989814;28;20058;-71
2021/09/24 04:07:43;;;;;;;31.50;12.13;;;15.10;99.90;;;;;;4989365;28;20053;-70
2021/09/24 04:10:09;;;;;;;37.08;12.32;;;15.10;99.90;;;;;;4987789;28;20557;-71
2021/09/24 04:12:35;;;;;;;28.33;12.63;;;15.10;99.90;;;;;;4989075;28;20042;-70
2021/09/24 04:15:01;;;;;;;32.78;12.60;;;15.10;99.90;;;;;;4989630;28;20066;-71
2021/09/24 04:17:26;;;;;;;29.73;12.52;;;15.20;99.90;;;;;;4987855;28;20038;-71
2021/09/24 04:19:52;;;;;;;29.33;12.38;;;15.20;99.90;;;;;;4989142;28;20026;-70
2021/09/24 04:22:17;;;;;;;33.67;13.23;;;15.20;99.90;;;;;;4989302;28;20145;-70
2021/09/24 04:24:43;;;;;;;31.65;14.10;;;15.20;99.90;;;;;;4988887;28;20030;-70
2021/09/24 04:27:09;;;;;;;36.47;14.07;;;15.20;99.90;;;;;;4989208;28;20046;-70
2021/09/24 04:29:34;;;;;;;29.88;13.20;;;15.30;99.90;;;;;;4988452;28;20030;-71
2021/09/24 04:32:00;;;;;;;41.15;15.60;;;15.30;99.90;;;;;;4987656;28;20481;-70
2021/09/24 04:34:25;;;;;;;38.72;14.02;;;15.30;99.90;;;;;;4988914;28;20038;-70
2021/09/24 04:36:51;;;;;;;37.15;14.23;;;15.40;99.90;;;;;;4987815;28;20030;-70
2021/09/24 04:39:17;;;;;;;35.90;14.73;;;15.30;99.90;;;;;;4992717;28;20153;-70
2021/09/24 04:41:42;;;;;;;40.90;15.00;;;15.40;99.90;;;;;;4989310;28;20518;-70
2021/09/24 04:44:08;;;;;;;42.33;16.30;;;15.40;99.90;;;;;;4992919;28;20038;-71
2021/09/24 04:46:34;;;;;;;37.35;15.70;;;15.40;99.90;;;;;;4992954;28;20034;-71
2021/09/24 04:48:59;;;;;;;50.72;17.77;;;15.50;99.90;;;;;;4992796;28;20025;-70
2021/09/24 04:51:25;;;;;;;39.22;15.93;;;15.50;99.90;;;;;;4993107;28;20053;-70
2021/09/24 04:53:51;;;;;;;45.35;16.52;;;15.60;99.90;;;;;;4992607;28;20041;-70
2021/09/24 04:56:16;;;;;;;53.95;17.70;;;15.60;99.90;;;;;;4993071;28;20045;-70
2021/09/24 04:58:42;;;;;;;48.47;17.17;;;15.60;99.90;;;;;;4992357;28;20034;-70
2021/09/24 05:01:08;;;;;;;43.05;16.08;;;15.60;99.90;;;;;;4993157;28;20022;-71
2021/09/24 05:03:34;;;;;;;46.13;16.20;;;15.60;99.90;;;;;;4992617;28;20045;-71
2021/09/24 05:05:59;;;;;;;41.20;15.40;;;15.70;99.90;;;;;;4992973;28;20035;-70
2021/09/24 05:08:25;;;;;;;41.13;16.40;;;15.70;99.90;;;;;;4991335;28;20121;-71
2021/09/24 05:10:51;;;;;;;46.13;16.30;;;15.70;99.90;;;;;;4990916;28;20126;-70
2021/09/24 05:13:16;;;;;;;44.78;17.10;;;15.80;99.90;;;;;;4992973;28;20066;-70
2021/09/24 05:15:42;;;;;;;46.08;15.77;;;15.80;99.90;;;;;;4992046;28;20122;-70
2021/09/24 05:18:07;;;;;;;46.00;16.60;;;15.90;99.90;;;;;;4991270;28;20034;-70
2021/09/24 05:20:34;;;;;;;49.15;15.88;;;15.90;99.90;;;;;;4992454;28;20042;-71
2021/09/24 05:23:00;;;;;;;38.88;15.77;;;15.90;99.90;;;;;;4991390;28;20033;-70
2021/09/24 05:25:25;;;;;;;43.78;15.57;;;15.90;99.90;;;;;;4992560;28;20042;-71
2021/09/24 05:27:52;;;;;;;45.13;16.75;;;16.00;99.90;;;;;;4992172;28;20081;-70
2021/09/24 05:30:18;;;;;;;37.17;14.93;;;16.00;99.90;;;;;;4990955;28;20050;-70
2021/09/24 05:32:44;;;;;;;43.55;16.02;;;16.00;99.90;;;;;;4992063;28;20038;-70
2021/09/24 05:35:11;;;;;;;44.40;17.00;;;16.10;99.90;;;;;;4992347;28;20434;-70
2021/09/24 05:37:37;;;;;;;46.65;15.18;;;16.10;99.90;;;;;;4992039;28;20470;-71
2021/09/24 05:40:04;;;;;;;44.70;16.67;;;16.20;99.90;;;;;;4990569;28;20045;-70
2021/09/24 05:42:30;;;;;;;42.72;15.45;;;16.20;99.90;;;;;;4991401;28;20042;-71
2021/09/24 05:44:56;;;;;;;45.20;15.98;;;16.20;99.90;;;;;;4990195;28;20035;-70
2021/09/24 05:47:22;;;;;;;52.08;15.52;;;16.20;99.90;;;;;;4992462;28;20121;-70
2021/09/24 05:49:47;;;;;;;39.38;14.75;;;16.30;99.90;;;;;;4991035;28;20406;-71
2021/09/24 05:52:13;;;;;;;35.97;14.77;;;16.30;99.90;;;;;;4991987;28;20034;-71
2021/09/24 05:54:39;;;;;;;38.25;14.23;;;16.40;99.90;;;;;;4990579;28;20453;-71
2021/09/24 05:57:05;;;;;;;32.08;14.63;;;16.40;99.90;;;;;;4991797;28;20550;-70
2021/09/24 05:59:30;;;;;;;34.42;14.25;;;16.50;99.90;;;;;;4991726;28;20137;-71
2021/09/24 06:01:56;;;;;;;37.35;12.95;;;16.50;99.90;;;;;;4991496;28;20141;-70
2021/09/24 06:04:21;;;;;;;40.97;13.43;;;16.50;99.90;;;;;;4990544;28;20035;-70
2021/09/24 06:06:48;;;;;;;35.80;14.98;;;16.50;99.90;;;;;;4991337;28;20103;-71
2021/09/24 06:09:14;;;;;;;38.25;12.95;;;16.50;99.90;;;;;;4991465;28;20046;-70
2021/09/24 06:11:40;;;;;;;37.17;14.15;;;16.50;99.90;;;;;;4991543;28;20092;-71
2021/09/24 06:14:06;;;;;;;51.83;14.73;;;16.60;99.90;;;;;;4989956;28;20117;-71
2021/09/24 06:16:31;;;;;;;35.25;14.15;;;16.60;99.90;;;;;;4989998;28;20549;-70
2021/09/24 06:18:58;;;;;;;33.60;13.57;;;16.60;99.90;;;;;;4989354;28;20034;-70
2021/09/24 06:21:24;;;;;;;33.72;13.18;;;16.60;99.90;;;;;;4991164;28;20155;-71
2021/09/24 06:23:51;;;;;;;33.53;13.90;;;16.60;99.90;;;;;;4989677;28;20081;-71
2021/09/24 06:26:16;;;;;;;37.55;14.95;;;16.60;99.90;;;;;;4989936;28;20112;-70
2021/09/24 06:28:42;;;;;;;30.77;12.98;;;16.70;99.90;;;;;;4990943;28;20090;-71
2021/09/24 06:31:08;;;;;;;39.95;14.60;;;16.70;99.90;;;;;;4991038;28;20501;-71
2021/09/24 06:33:34;;;;;;;31.33;13.55;;;16.70;99.90;;;;;;4991484;28;20046;-70
2021/09/24 06:35:59;;;;;;;32.17;13.32;;;16.70;99.90;;;;;;4989340;28;20042;-70
2021/09/24 06:38:25;;;;;;;30.50;13.00;;;16.70;99.90;;;;;;4991197;28;20065;-71
2021/09/24 06:40:51;;;;;;;35.35;14.23;;;16.80;99.90;;;;;;4989183;28;20681;-70
2021/09/24 06:43:17;;;;;;;27.75;12.77;;;16.80;99.90;;;;;;4990253;28;20037;-71
2021/09/24 06:45:42;;;;;;;37.72;12.95;;;16.80;99.90;;;;;;4987583;28;20030;-71
2021/09/24 06:48:08;;;;;;;36.10;13.48;;;16.90;99.90;;;;;;4990530;28;20034;-71
2021/09/24 06:50:35;;;;;;;34.33;12.73;;;16.90;99.90;;;;;;4989698;28;20178;-70
2021/09/24 06:53:00;;;;;;;31.27;13.40;;;16.90;99.90;;;;;;4990801;28;20089;-70
2021/09/24 06:55:27;;;;;;;29.77;12.10;;;17.00;99.90;;;;;;4990940;28;20042;-71
2021/09/24 06:57:54;;;;;;;44.33;12.98;;;17.00;99.90;;;;;;4990566;28;20038;-71
2021/09/24 07:00:20;;;;;;;24.90;11.38;;;17.00;99.90;;;;;;4988914;28;20065;-70
2021/09/24 07:02:46;;;;;;;29.08;12.65;;;17.10;99.90;;;;;;4989768;28;20030;-71
2021/09/24 07:05:11;;;;;;;33.85;13.45;;;17.10;99.90;;;;;;4990283;28;20041;-71
2021/09/24 07:07:37;;;;;;;28.10;12.05;;;17.10;99.90;;;;;;4989580;28;20049;-70
2021/09/24 07:10:03;;;;;;;30.92;11.50;;;17.20;99.90;;;;;;4990372;28;20671;-71
2021/09/24 07:12:29;;;;;;;24.55;10.50;;;17.20;99.90;;;;;;4989363;28;20038;-70
2021/09/24 07:14:55;;;;;;;30.45;11.43;;;17.20;99.90;;;;;;4990922;28;20478;-70
2021/09/24 07:17:21;;;;;;;27.55;12.05;;;17.30;99.90;;;;;;4990572;28;20092;-70
2021/09/24 07:19:47;;;;;;;30.85;11.30;;;17.30;99.90;;;;;;4990404;28;20441;-71
2021/09/24 07:22:13;;;;;;;29.65;12.15;;;17.30;99.90;;;;;;4986245;28;20042;-70
2021/09/24 07:24:38;;;;;;;25.73;12.32;;;17.40;99.90;;;;;;4990525;28;20082;-70
2021/09/24 07:27:04;;;;;;;32.60;12.27;;;17.40;99.90;;;;;;4989945;28;20034;-71
2021/09/24 07:29:30;;;;;;;26.67;11.23;;;17.50;99.90;;;;;;4990324;28;20108;-70
2021/09/24 07:31:56;;;;;;;25.60;11.00;;;17.50;99.90;;;;;;4988957;28;20034;-71
2021/09/24 07:34:21;;;;;;;25.27;10.48;;;17.60;99.90;;;;;;4988649;28;20486;-70
2021/09/24 07:36:47;;;;;;;26.45;10.55;;;17.70;99.90;;;;;;4990220;28;20076;-70
2021/09/24 07:39:13;;;;;;;29.80;10.32;;;17.70;99.90;;;;;;4988231;28;20483;-70
2021/09/24 07:41:39;;;;;;;22.67;10.40;;;17.60;99.90;;;;;;4990180;28;20034;-70
2021/09/24 07:44:05;;;;;;;22.75;11.05;;;17.70;99.90;;;;;;4990119;28;20027;-71
2021/09/24 07:46:32;;;;;;;20.38;10.38;;;17.80;99.90;;;;;;4993216;28;20079;-70
2021/09/24 07:48:59;;;;;;;22.65;9.98;;;17.80;99.90;;;;;;4990967;28;20041;-70
2021/09/24 07:51:26;;;;;;;22.67;10.45;;;17.80;99.90;;;;;;4993206;28;20038;-70
2021/09/24 07:53:51;;;;;;;19.95;9.65;;;17.90;99.90;;;;;;4994654;28;20128;-70
2021/09/24 07:56:17;;;;;;;24.38;10.40;;;17.80;99.90;;;;;;4996287;28;20585;-70
2021/09/24 07:58:43;;;;;;;24.95;9.32;;;17.90;99.90;;;;;;4989610;28;20447;-70
2021/09/24 08:01:09;;;;;;;24.08;9.77;;;17.90;99.90;;;;;;4989647;28;20079;-70
2021/09/24 08:03:37;;;;;;;23.75;10.75;;;17.90;99.90;;;;;;4989510;28;20062;-70
2021/09/24 08:06:03;;;;;;;21.63;10.88;;;18.00;99.90;;;;;;4986939;28;20067;-70
2021/09/24 08:08:29;;;;;;;24.67;11.25;;;18.10;99.90;;;;;;4986525;28;20038;-70
2021/09/24 08:10:54;;;;;;;19.20;9.32;;;18.10;99.90;;;;;;4986089;28;20038;-70
2021/09/24 08:13:20;;;;;;;19.05;9.40;;;18.20;99.90;;;;;;4986951;28;20181;-71
2021/09/24 08:15:46;;;;;;;18.38;8.65;;;18.10;99.90;;;;;;4987440;28;20042;-71
2021/09/24 08:18:15;;;;;;;21.05;9.65;;;18.10;99.90;;;;;;4985658;28;20026;-71
2021/09/24 08:20:41;;;;;;;19.13;10.27;;;18.20;99.90;;;;;;4989218;28;20045;-71
2021/09/24 08:23:07;;;;;;;24.13;9.18;;;18.20;99.90;;;;;;5031174;22;20127;-62
2021/09/24 08:25:33;;;;;;;18.35;8.77;;;18.20;99.90;;;;;;5046463;28;20167;-60
2021/09/24 08:27:59;;;;;;;15.80;8.18;;;18.30;99.90;;;;;;5044075;28;20036;-61
2021/09/24 08:30:25;;;;;;;16.05;7.93;;;18.30;99.90;;;;;;5046742;28;20480;-61
2021/09/24 08:32:52;;;;;;;22.00;9.15;;;18.40;99.90;;;;;;5035278;28;20025;-61
2021/09/24 08:35:18;;;;;;;16.98;8.32;;;18.40;99.90;;;;;;5026230;28;20037;-61
2021/09/24 08:37:47;;;;;;;18.00;7.65;;;18.50;99.90;;;;;;5027893;28;20399;-62
2021/09/24 08:40:14;;;;;;;16.92;7.88;;;18.40;99.90;;;;;;5022854;28;20044;-61
2021/09/24 08:42:41;;;;;;;17.15;7.53;;;18.50;99.90;;;;;;5026384;28;20113;-62
2021/09/24 08:45:15;;;;;;;14.63;7.47;;;18.50;99.90;;;;;;5041828;28;20139;-61
2021/09/24 08:47:40;;;;;;;16.85;7.40;;;18.50;99.90;;;;;;5027753;28;20025;-61
2021/09/24 08:50:07;;;;;;;18.55;7.63;;;18.60;99.90;;;;;;5037058;28;20124;-62
2021/09/24 08:52:36;;;;;;;13.65;6.63;;;18.60;99.90;;;;;;5031575;28;20488;-62
2021/09/24 08:55:04;;;;;;;20.65;7.60;;;18.70;99.90;;;;;;5028899;28;20041;-61
2021/09/24 08:57:29;;;;;;;13.48;6.53;;;18.80;99.90;;;;;;5028270;28;20040;-61
2021/09/24 08:59:55;;;;;;;14.75;6.38;;;18.80;99.90;;;;;;5032459;28;20041;-62
2021/09/24 09:02:21;;;;;;;14.00;5.93;;;18.90;99.90;;;;;;5033611;28;20029;-61
2021/09/24 09:04:46;;;;;;;11.85;5.95;;;19.00;99.90;;;;;;5036589;28;20030;-61
2021/09/24 09:07:18;;;;;;;9.73;5.22;;;19.20;99.90;;;;;;5031255;28;20511;-61
2021/09/24 09:09:51;;;;;;;10.20;5.18;;;19.30;99.90;;;;;;5037092;28;20033;-61
2021/09/24 09:12:27;;;;;;;12.65;5.90;;;19.40;99.90;;;;;;5034621;28;20480;-61
2021/09/24 09:14:58;;;;;;;13.75;6.45;;;19.50;99.90;;;;;;5036037;28;20041;-61
2021/09/24 09:17:29;;;;;;;10.98;5.35;;;19.50;99.90;;;;;;5038042;28;20029;-61
2021/09/24 09:20:12;;;;;;;11.25;5.18;;;19.60;99.90;;;;;;5036155;28;20037;-60
2021/09/24 09:22:39;;;;;;;13.15;5.80;;;19.60;99.90;;;;;;5029681;28;20050;-62
2021/09/24 09:25:12;;;;;;;11.48;4.60;;;19.70;99.90;;;;;;5037535;28;20396;-61
2021/09/24 09:27:38;;;;;;;11.63;4.45;;;19.80;99.90;;;;;;5042217;28;20079;-60
2021/09/24 09:30:11;;;;;;;10.20;4.55;;;19.80;99.90;;;;;;5038727;28;20064;-61
2021/09/24 09:32:38;;;;;;;13.38;4.70;;;19.90;99.90;;;;;;5036591;28;20029;-60
2021/09/24 09:35:06;;;;;;;8.82;3.90;;;19.90;99.90;;;;;;5044916;28;20497;-61
2021/09/24 09:37:35;;;;;;;10.68;5.07;;;20.00;99.90;;;;;;5042258;28;20469;-62
2021/09/24 09:40:06;;;;;;;7.65;4.00;;;19.90;99.90;;;;;;5040680;28;20084;-62
2021/09/24 09:42:37;;;;;;;11.13;4.28;;;20.00;99.90;;;;;;5040943;28;20056;-61
2021/09/24 09:45:05;;;;;;;11.57;4.30;;;20.00;99.90;;;;;;5041863;28;20068;-61
2021/09/24 09:47:37;;;;;;;10.35;5.28;;;20.00;99.90;;;;;;5043158;28;20128;-61
2021/09/24 09:50:14;;;;;;;7.32;3.58;;;20.10;99.90;;;;;;5039987;28;20088;-60
2021/09/24 09:52:59;;;;;;;7.68;3.65;;;20.20;99.90;;;;;;5037243;28;20404;-61
2021/09/24 09:55:29;;;;;;;11.07;4.38;;;20.30;99.90;;;;;;5042233;28;20132;-60
2021/09/24 09:58:00;;;;;;;6.68;3.33;;;20.50;99.90;;;;;;5037899;28;20451;-61
2021/09/24 10:00:31;;;;;;;6.35;3.08;;;20.60;99.90;;;;;;5041791;28;20065;-62
2021/09/24 10:03:10;;;;;;;7.22;3.83;;;20.70;99.90;;;;;;5041088;28;20071;-61
2021/09/24 10:05:40;;;;;;;10.65;3.67;;;20.70;99.90;;;;;;5036126;28;20061;-61
2021/09/24 10:08:20;;;;;;;7.15;3.42;;;20.80;99.90;;;;;;5036858;28;20021;-60
2021/09/24 10:11:03;;;;;;;9.38;3.50;;;21.00;99.90;;;;;;5039413;28;20082;-60
2021/09/24 10:13:51;;;;;;;10.63;3.78;;;21.10;99.90;;;;;;5046358;28;20057;-61
2021/09/24 10:16:17;;;;;;;10.32;3.38;;;21.10;99.90;;;;;;5039961;28;20582;-61
2021/09/24 10:18:42;;;;;;;8.15;3.33;;;21.10;99.90;;;;;;5044839;28;20189;-61
2021/09/24 10:21:08;;;;;;;6.88;2.88;;;21.10;99.90;;;;;;5039901;28;20034;-60
2021/09/24 10:23:34;;;;;;;9.68;3.75;;;21.00;99.90;;;;;;5040718;28;20033;-61
2021/09/24 10:26:08;;;;;;;5.43;2.90;;;20.80;99.90;;;;;;5042356;28;20025;-61
2021/09/24 10:28:37;;;;;;;8.60;3.15;;;20.90;99.90;;;;;;5034360;28;20427;-61
2021/09/24 10:31:03;;;;;;;8.82;3.17;;;21.10;99.90;;;;;;5030767;28;20036;-61
2021/09/24 10:34:00;;;;;;;6.05;2.33;;;21.20;99.90;;;;;;5040947;28;20072;-62
2021/09/24 10:36:48;;;;;;;6.88;2.40;;;21.30;99.90;;;;;;5039423;28;20489;-60
2021/09/24 10:39:29;;;;;;;5.28;2.70;;;21.50;99.90;;;;;;5037314;28;20034;-60
2021/09/24 10:42:16;;;;;;;9.23;2.65;;;21.80;99.90;;;;;;5041514;28;20116;-60
2021/09/24 10:45:07;;;;;;;5.47;2.25;;;22.00;99.90;;;;;;5034440;28;20408;-61
2021/09/24 10:47:59;;;;;;;;;;;22.10;99.90;;;;;;5040401;28;20036;-61
2021/09/24 10:50:37;;;;;;;5.93;2.20;;;22.10;99.90;;;;;;5024849;28;19937;-61
2021/09/24 10:53:14;;;;;;;6.88;3.10;;;21.90;99.90;;;;;;5038693;28;20034;-61
2021/09/24 10:55:47;;;;;;;8.23;2.72;;;21.80;99.90;;;;;;5036859;28;20029;-61
2021/09/24 10:58:27;;;;;;;5.57;2.20;;;21.70;99.90;;;;;;5035202;28;20145;-62
2021/09/24 11:00:55;;;;;;;5.75;2.60;;;21.70;99.90;;;;;;5038771;28;20034;-60
2021/09/24 11:03:23;;;;;;;9.30;2.65;;;21.70;99.90;;;;;;5040586;28;20041;-61
2021/09/24 11:05:58;;;;;;;6.55;2.75;;;21.80;99.90;;;;;;5038306;28;20037;-60
2021/09/24 11:08:32;;;;;;;6.93;2.42;;;22.00;99.90;;;;;;5037658;28;20048;-60
2021/09/24 11:11:16;;;;;;;4.53;2.15;;;22.20;99.90;;;;;;5041024;28;20056;-61
2021/09/24 11:13:47;;;;;;;7.38;2.90;;;22.30;99.90;;;;;;5035360;28;20045;-61
2021/09/24 11:16:13;;;;;;;6.50;2.95;;;22.40;99.90;;;;;;5033986;28;20084;-60
2021/09/24 11:18:53;;;;;;;4.78;2.25;;;22.30;99.90;;;;;;5041972;28;20033;-60
2021/09/24 11:21:21;;;;;;;3.83;1.77;;;22.20;99.90;;;;;;5044234;28;20033;-60
2021/09/24 11:23:49;;;;;;;5.95;2.22;;;22.00;99.90;;;;;;5003597;28;1060414;-61
2021/09/24 11:26:25;;;;;;;11.50;2.72;;;21.80;99.90;;;;;;5045558;28;20053;-62
2021/09/24 11:29:09;;;;;;;4.40;1.90;;;21.70;99.90;;;;;;5049696;28;20090;-61
2021/09/24 11:31:53;;;;;;;6.22;2.42;;;21.50;99.90;;;;;;5040633;28;20073;-60
2021/09/24 11:34:38;;;;;;;6.65;2.17;;;21.40;99.90;;;;;;5044955;28;20041;-60
2021/09/24 11:37:09;;;;;;;5.20;1.83;;;21.60;99.90;;;;;;5036726;28;20045;-61
2021/09/24 11:39:37;;;;;;;3.95;1.30;;;21.60;99.90;;;;;;5041615;28;20033;-61
2021/09/24 11:42:11;;;;;;;6.25;1.58;;;21.60;99.90;;;;;;5038203;28;20044;-60
2021/09/24 11:44:51;;;;;;;2.63;1.25;;;21.50;99.90;;;;;;5036981;28;20091;-61
2021/09/24 11:47:22;;;;;;;4.00;1.67;;;21.50;99.90;;;;;;5037747;28;20040;-62
2021/09/24 11:50:08;;;;;;;5.70;2.08;;;21.40;99.90;;;;;;5038524;28;20382;-61
2021/09/24 11:52:54;;;;;;;7.65;1.08;;;21.30;99.90;;;;;;5035404;28;20485;-62
2021/09/24 11:55:34;;;;;;;2.63;0.90;;;21.30;99.90;;;;;;5039810;28;20029;-61
2021/09/24 11:58:02;;;;;;;4.03;0.93;;;21.20;99.90;;;;;;5029770;28;20032;-61
2021/09/24 12:00:53;;;;;;;4.65;1.20;;;21.10;99.90;;;;;;5035582;28;20045;-61
2021/09/24 12:03:22;;;;;;;3.38;1.63;;;21.00;99.90;;;;;;5035592;28;20077;-61
2021/09/24 12:05:54;;;;;;;3.75;1.27;;;21.00;99.90;;;;;;5041685;28;20037;-60
2021/09/24 12:08:25;;;;;;;3.28;1.52;;;21.10;99.90;;;;;;5042790;28;20120;-61
2021/09/24 12:10:58;;;;;;;7.53;1.50;;;21.00;99.90;;;;;;5038008;28;20566;-61
2021/09/24 12:13:38;;;;;;;4.13;1.48;;;21.00;99.90;;;;;;5041844;28;20048;-62
2021/09/24 12:16:04;;;;;;;4.57;1.60;;;21.00;99.90;;;;;;5033827;28;20037;-61
2021/09/24 12:18:45;;;;;;;4.20;1.40;;;21.00;99.90;;;;;;5036067;28;20034;-60
2021/09/24 12:21:12;;;;;;;3.25;1.95;;;21.00;99.90;;;;;;5036595;28;20025;-60
2021/09/24 12:23:38;;;;;;;6.40;2.05;;;21.00;99.90;;;;;;5039737;28;20400;-62
2021/09/24 12:26:07;;;;;;;4.65;1.85;;;21.10;99.90;;;;;;5038601;28;20039;-60
2021/09/24 12:28:33;;;;;;;4.50;1.83;;;21.20;99.90;;;;;;5033401;28;20030;-61
2021/09/24 12:30:59;;;;;;;3.53;1.25;;;21.30;99.90;;;;;;5039892;28;20036;-61
2021/09/24 12:33:24;;;;;;;3.88;1.00;;;21.40;99.90;;;;;;5035447;28;20033;-60
2021/09/24 12:35:57;;;;;;;2.30;0.60;;;21.50;99.90;;;;;;5036990;28;20033;-61
2021/09/24 12:38:25;;;;;;;3.80;0.82;;;21.70;99.90;;;;;;5037245;28;20041;-61
2021/09/24 12:41:10;;;;;;;4.55;1.33;;;21.70;99.90;;;;;;5037144;28;20402;-61
2021/09/24 12:43:37;;;;;;;2.65;0.70;;;21.80;99.90;;;;;;5035745;28;20508;-61